createdAt,value
2023-01-03T00:01:53.908Z,102133.88
2023-01-03T00:04:22.129Z,102138.41
2023-01-03T00:06:51.554Z,102131.50
2023-01-03T00:09:21.691Z,102135.84
2023-01-03T00:12:09.642Z,102127.84
2023-01-03T00:14:44.184Z,102125.75
2023-01-03T00:17:12.911Z,102126.84
2023-01-03T00:19:42.809Z,102131.34
2023-01-03T00:22:12.321Z,102133.81
2023-01-03T00:24:40.215Z,102132.94
2023-01-03T00:27:08.926Z,102131.81
2023-01-03T00:29:37.102Z,102124.00
2023-01-03T00:32:07.355Z,102125.69
2023-01-03T00:34:35.995Z,102120.28
2023-01-03T00:37:03.980Z,102123.84
2023-01-03T00:39:31.879Z,102124.22
2023-01-03T00:41:59.675Z,102119.22
2023-01-03T00:44:27.515Z,102121.44
2023-01-03T00:46:55.257Z,102112.63
2023-01-03T00:49:23.029Z,102118.91
2023-01-03T00:51:50.992Z,102121.66
2023-01-03T00:54:18.761Z,102126.16
2023-01-03T00:56:48.251Z,102120.59
2023-01-03T00:59:17.650Z,102122.41
2023-01-03T01:01:53.015Z,102119.81
2023-01-03T01:04:32.024Z,102128.38
2023-01-03T01:07:02.729Z,102126.47
2023-01-03T01:09:35.907Z,102128.28
2023-01-03T01:12:05.257Z,102139.94
2023-01-03T01:14:33.855Z,102140.81
2023-01-03T01:17:04.914Z,102134.81
2023-01-03T01:19:35.100Z,102132.34
2023-01-03T01:22:03.327Z,102132.00
2023-01-03T01:24:31.674Z,102132.00
2023-01-03T01:27:00.450Z,102138.59
2023-01-03T01:29:28.229Z,102131.72
2023-01-03T01:31:56.070Z,102137.91
2023-01-03T01:34:24.139Z,102141.31
2023-01-03T01:36:52.180Z,102130.72
2023-01-03T01:39:23.126Z,102135.34
2023-01-03T01:42:18.356Z,102140.75
2023-01-03T01:45:12.694Z,102133.00
2023-01-03T01:47:54.897Z,102135.50
2023-01-03T01:50:32.139Z,102144.97
2023-01-03T01:53:01.996Z,102137.97
2023-01-03T01:55:39.287Z,102141.47
2023-01-03T01:58:09.118Z,102130.31
2023-01-03T02:00:40.544Z,102132.59
2023-01-03T02:03:08.680Z,102131.28
2023-01-03T02:05:39.655Z,102132.41
2023-01-03T02:08:07.424Z,102136.00
2023-01-03T02:10:55.191Z,102138.78
2023-01-03T02:13:31.687Z,102138.97
2023-01-03T02:16:17.872Z,102133.09
2023-01-03T02:19:39.501Z,102132.25
2023-01-03T02:22:09.909Z,102130.97
2023-01-03T02:24:54.826Z,102128.84
2023-01-03T02:27:45.713Z,102121.97
2023-01-03T02:30:38.110Z,102116.13
2023-01-03T02:33:10.625Z,102118.06
2023-01-03T02:35:47.710Z,102116.84
2023-01-03T02:38:36.335Z,102123.19
2023-01-03T02:41:17.134Z,102124.00
2023-01-03T02:44:19.983Z,102115.72
2023-01-03T02:47:05.566Z,102115.84
2023-01-03T02:49:45.085Z,102106.09
2023-01-03T02:52:22.050Z,102101.56
2023-01-03T02:55:18.716Z,102115.97
2023-01-03T02:57:53.474Z,102109.66
2023-01-03T03:00:25.740Z,102107.19
2023-01-03T03:02:59.367Z,102089.44
2023-01-03T03:05:34.190Z,102103.59
2023-01-03T03:08:01.884Z,102107.19
2023-01-03T03:10:48.797Z,102103.81
2023-01-03T03:13:28.367Z,102095.66
2023-01-03T03:16:17.911Z,102110.66
2023-01-03T03:18:59.631Z,102096.69
2023-01-03T03:21:54.425Z,102102.69
2023-01-03T03:24:46.399Z,102097.44
2023-01-03T03:27:35.814Z,102095.59
2023-01-03T03:30:05.745Z,102085.75
2023-01-03T03:32:36.540Z,102092.97
2023-01-03T03:35:09.166Z,102087.88
2023-01-03T03:37:40.087Z,102091.31
2023-01-03T03:40:37.961Z,102093.59
2023-01-03T03:43:34.404Z,102090.94
2023-01-03T03:46:10.493Z,102098.16
2023-01-03T03:48:58.101Z,102106.97
2023-01-03T03:51:31.791Z,102108.78
2023-01-03T03:54:04.291Z,102099.75
2023-01-03T03:56:34.920Z,102100.56
2023-01-03T03:59:08.855Z,102094.31
2023-01-03T04:01:39.278Z,102096.41
2023-01-03T04:04:11.789Z,102104.28
2023-01-03T04:06:45.863Z,102095.41
2023-01-03T04:09:14.240Z,102084.69
2023-01-03T04:11:41.971Z,102103.19
2023-01-03T04:14:09.909Z,102087.53
2023-01-03T04:16:37.984Z,102091.81
2023-01-03T04:19:06.010Z,102086.56
2023-01-03T04:21:33.847Z,102095.41
2023-01-03T04:24:01.549Z,102090.16
2023-01-03T04:26:29.475Z,102087.53
2023-01-03T04:28:57.391Z,102091.94
2023-01-03T04:31:25.150Z,102092.94
2023-01-03T04:33:54.158Z,102092.06
2023-01-03T04:36:22.246Z,102099.94
2023-01-03T04:38:49.926Z,102095.47
2023-01-03T04:41:17.730Z,102099.81
2023-01-03T04:44:04.863Z,102097.25
2023-01-03T04:46:35.403Z,102092.78
2023-01-03T04:49:05.188Z,102099.03
2023-01-03T04:51:33.396Z,102092.69
2023-01-03T04:54:01.885Z,102097.94
2023-01-03T04:56:32.698Z,102094.44
2023-01-03T04:59:00.666Z,102092.78
2023-01-03T05:01:29.197Z,102092.84
2023-01-03T05:04:01.344Z,102101.81
2023-01-03T05:06:29.408Z,102104.56
2023-01-03T05:08:57.189Z,102101.00
2023-01-03T05:11:24.882Z,102093.88
2023-01-03T05:13:52.759Z,102097.44
2023-01-03T05:16:21.411Z,102097.31
2023-01-03T05:18:51.447Z,102096.47
2023-01-03T05:21:40.011Z,102102.94
2023-01-03T05:24:29.294Z,102103.81
2023-01-03T05:26:59.897Z,102113.72
2023-01-03T05:29:29.065Z,102126.91
2023-01-03T05:31:57.307Z,102114.59
2023-01-03T05:34:25.160Z,102115.38
2023-01-03T05:36:53.100Z,102109.13
2023-01-03T05:39:20.948Z,102126.75
2023-01-03T05:42:00.412Z,102128.63
2023-01-03T05:44:33.140Z,102129.50
2023-01-03T05:47:02.922Z,102133.09
2023-01-03T05:49:35.802Z,102134.88
2023-01-03T05:52:04.046Z,102132.06
2023-01-03T05:54:31.766Z,102137.38
2023-01-03T05:56:59.504Z,102134.75
2023-01-03T05:59:27.355Z,102129.53
2023-01-03T06:01:56.372Z,102130.66
2023-01-03T06:04:24.333Z,102139.34
2023-01-03T06:06:52.149Z,102140.16
2023-01-03T06:09:19.850Z,102144.41
2023-01-03T06:11:48.650Z,102148.00
2023-01-03T06:14:16.541Z,102146.91
2023-01-03T06:17:04.058Z,102143.34
2023-01-03T06:19:31.729Z,102138.25
2023-01-03T06:21:59.402Z,102134.97
2023-01-03T06:24:27.137Z,102144.38
2023-01-03T06:26:54.956Z,102144.88
2023-01-03T06:29:22.930Z,102159.81
2023-01-03T06:31:50.719Z,102156.38
2023-01-03T06:34:21.496Z,102158.88
2023-01-03T06:36:52.190Z,102167.81
2023-01-03T06:39:19.989Z,102163.22
2023-01-03T06:41:49.103Z,102158.00
2023-01-03T06:44:22.083Z,102148.25
2023-01-03T06:47:08.815Z,102153.69
2023-01-03T06:50:23.922Z,102154.56
2023-01-03T06:53:12.759Z,102151.97
2023-01-03T06:56:06.810Z,102158.00
2023-01-03T06:58:35.101Z,102153.97
2023-01-03T07:01:04.912Z,102160.94
2023-01-03T07:03:33.588Z,102155.66
2023-01-03T07:06:01.231Z,102159.28
2023-01-03T07:08:28.799Z,102157.88
2023-01-03T07:10:56.574Z,102156.66
2023-01-03T07:13:43.497Z,102162.88
2023-01-03T07:16:16.634Z,102176.22
2023-01-03T07:18:50.696Z,102171.06
2023-01-03T07:21:27.005Z,102173.53
2023-01-03T07:23:59.214Z,102178.00
2023-01-03T07:26:26.904Z,102173.44
2023-01-03T07:28:54.581Z,102170.44
2023-01-03T07:31:22.241Z,102175.56
2023-01-03T07:33:50.552Z,102184.44
2023-01-03T07:36:18.089Z,102170.56
2023-01-03T07:38:46.603Z,102179.63
2023-01-03T07:41:15.616Z,102181.41
2023-01-03T07:43:48.545Z,102183.97
2023-01-03T07:46:18.357Z,102180.94
2023-01-03T07:48:52.039Z,102181.25
2023-01-03T07:51:46.730Z,102184.19
2023-01-03T07:54:21.563Z,102192.97
2023-01-03T07:56:49.073Z,102191.00
2023-01-03T07:59:16.644Z,102177.84
2023-01-03T08:01:54.976Z,102186.69
2023-01-03T08:04:22.824Z,102184.97
2023-01-03T08:06:51.100Z,102183.16
2023-01-03T08:09:37.053Z,102185.09
2023-01-03T08:12:23.488Z,102186.75
2023-01-03T08:14:51.196Z,102186.25
2023-01-03T08:17:18.931Z,102186.41
2023-01-03T08:19:46.481Z,102174.91
2023-01-03T08:22:14.184Z,102183.34
2023-01-03T08:24:41.916Z,102187.09
2023-01-03T08:27:09.564Z,102181.91
2023-01-03T08:29:37.184Z,102185.09
2023-01-03T08:32:05.963Z,102188.75
2023-01-03T08:34:37.924Z,102182.59
2023-01-03T08:37:10.494Z,102190.72
2023-01-03T08:39:44.448Z,102201.25
2023-01-03T08:42:15.969Z,102201.38
2023-01-03T08:44:45.313Z,102208.72
2023-01-03T08:47:17.354Z,102219.47
2023-01-03T08:49:45.122Z,102206.72
2023-01-03T08:52:12.909Z,102216.53
2023-01-03T08:54:40.633Z,102213.59
2023-01-03T08:57:08.192Z,102211.94
2023-01-03T08:59:35.831Z,102220.22
2023-01-03T09:02:03.861Z,102228.25
2023-01-03T09:04:31.733Z,102225.25
2023-01-03T09:06:59.376Z,102227.88
2023-01-03T09:09:26.978Z,102228.59
2023-01-03T09:11:54.599Z,102226.03
2023-01-03T09:14:22.322Z,102231.53
2023-01-03T09:16:50.009Z,102229.25
2023-01-03T09:19:17.984Z,102241.91
2023-01-03T09:21:45.715Z,102232.16
2023-01-03T09:24:13.523Z,102245.72
2023-01-03T09:26:41.154Z,102246.56
2023-01-03T09:29:08.880Z,102240.31
2023-01-03T09:31:40.036Z,102233.47
2023-01-03T09:34:09.856Z,102241.34
2023-01-03T09:36:40.652Z,102235.53
2023-01-03T09:39:08.373Z,102235.72
2023-01-03T09:41:36.415Z,102227.03
2023-01-03T09:44:08.205Z,102229.03
2023-01-03T09:46:37.199Z,102231.66
2023-01-03T09:49:07.372Z,102226.16
2023-01-03T09:51:57.417Z,102223.66
2023-01-03T09:54:51.074Z,102221.53
2023-01-03T09:57:43.130Z,102216.19
2023-01-03T10:00:37.733Z,102222.16
2023-01-03T10:03:50.332Z,102216.69
2023-01-03T10:06:59.752Z,102220.59
2023-01-03T10:09:54.070Z,102213.66
2023-01-03T10:12:53.128Z,102216.09
2023-01-03T10:15:23.600Z,102207.81
2023-01-03T10:18:28.365Z,102211.66
2023-01-03T10:21:09.456Z,102201.38
2023-01-03T10:23:37.756Z,102197.88
2023-01-03T10:26:12.314Z,102189.50
2023-01-03T10:28:44.318Z,102183.56
2023-01-03T10:31:56.427Z,102180.44
2023-01-03T10:34:24.672Z,102192.78
2023-01-03T10:36:52.256Z,102187.44
2023-01-03T10:39:31.245Z,102181.97
2023-01-03T10:42:00.462Z,102185.00
2023-01-03T10:44:30.973Z,102182.56
2023-01-03T10:47:18.746Z,102179.31
2023-01-03T10:49:47.211Z,102179.41
2023-01-03T10:52:18.391Z,102179.25
2023-01-03T10:54:56.024Z,102167.22
2023-01-03T10:57:43.708Z,102170.25
2023-01-03T11:00:35.911Z,102165.13
2023-01-03T11:03:12.523Z,102167.63
2023-01-03T11:05:43.055Z,102164.22
2023-01-03T11:08:21.152Z,102161.44
2023-01-03T11:10:57.620Z,102154.78
2023-01-03T11:13:38.312Z,102157.41
2023-01-03T11:16:17.679Z,102147.19
2023-01-03T11:19:00.554Z,102138.28
2023-01-03T11:21:43.205Z,102149.56
2023-01-03T11:24:44.553Z,102143.44
2023-01-03T11:27:47.653Z,102148.19
2023-01-03T11:30:30.190Z,102149.88
2023-01-03T11:33:09.453Z,102143.66
2023-01-03T11:35:51.938Z,102156.50
2023-01-03T11:38:38.309Z,102152.47
2023-01-03T11:41:18.695Z,102141.53
2023-01-03T11:44:06.408Z,102155.03
2023-01-03T11:46:42.501Z,102151.47
2023-01-03T11:49:23.191Z,102147.31
2023-01-03T11:52:10.564Z,102145.69
2023-01-03T11:54:49.333Z,102142.91
2023-01-03T11:57:51.022Z,102151.19
2023-01-03T12:00:42.222Z,102144.81
2023-01-03T12:03:10.061Z,102135.25
2023-01-03T12:05:45.671Z,102122.56
2023-01-03T12:08:16.533Z,102132.47
2023-01-03T12:10:53.002Z,102134.22
2023-01-03T12:13:51.975Z,102127.16
2023-01-03T12:16:26.332Z,102121.81
2023-01-03T12:19:12.543Z,102113.31
2023-01-03T12:21:48.279Z,102113.34
2023-01-03T12:24:15.687Z,102124.97
2023-01-03T12:26:50.820Z,102105.47
2023-01-03T12:29:25.062Z,102107.28
2023-01-03T12:32:22.329Z,102106.38
2023-01-03T12:35:24.237Z,102102.06
2023-01-03T12:37:52.381Z,102096.78
2023-01-03T12:40:57.275Z,102100.31
2023-01-03T12:43:40.170Z,102104.53
2023-01-03T12:46:33.461Z,102083.19
2023-01-03T12:49:22.583Z,102081.56
2023-01-03T12:51:50.259Z,102077.97
2023-01-03T12:54:24.108Z,102088.72
2023-01-03T12:57:04.420Z,102075.72
2023-01-03T12:59:50.474Z,102084.50
2023-01-03T13:02:55.315Z,102083.66
2023-01-03T13:05:55.048Z,102074.69
2023-01-03T13:08:41.246Z,102081.00
2023-01-03T13:11:28.855Z,102062.59
2023-01-03T13:14:05.709Z,102070.44
2023-01-03T13:16:36.508Z,102079.09
2023-01-03T13:19:22.429Z,102084.41
2023-01-03T13:21:52.698Z,102070.97
2023-01-03T13:24:43.170Z,102065.53
2023-01-03T13:27:19.708Z,102060.25
2023-01-03T13:29:50.141Z,102062.16
2023-01-03T13:32:26.088Z,102058.69
2023-01-03T13:34:56.667Z,102058.50
2023-01-03T13:37:29.497Z,102045.28
2023-01-03T13:40:10.809Z,102038.47
2023-01-03T13:42:40.371Z,102038.22
2023-01-03T13:45:19.824Z,102053.25
2023-01-03T13:47:56.950Z,102049.59
2023-01-03T13:50:45.237Z,102063.69
2023-01-03T13:58:06.467Z,102059.28
2023-01-03T14:02:08.099Z,102056.41
2023-01-03T14:04:54.076Z,102061.63
2023-01-03T14:08:17.221Z,102063.34
2023-01-03T14:11:42.668Z,102060.09
2023-01-03T14:15:55.038Z,102061.13
2023-01-03T14:18:28.782Z,102059.97
2023-01-03T14:21:13.939Z,102066.25
2023-01-03T14:24:01.682Z,102066.16
2023-01-03T14:26:33.889Z,102069.69
2023-01-03T14:29:18.832Z,102068.72
2023-01-03T14:31:50.368Z,102080.19
2023-01-03T14:34:29.455Z,102084.50
2023-01-03T14:37:01.859Z,102080.94
2023-01-03T14:42:06.361Z,102081.50
2023-01-03T14:44:35.582Z,102072.38
2023-01-03T14:47:07.099Z,102080.28
2023-01-03T14:49:41.875Z,102078.78
2023-01-03T14:52:19.173Z,102077.84
2023-01-03T14:54:52.179Z,102077.81
2023-01-03T14:57:23.985Z,102079.44
2023-01-03T14:59:53.536Z,102072.59
2023-01-03T15:02:21.492Z,102064.66
2023-01-03T15:04:56.468Z,102066.38
2023-01-03T15:07:44.762Z,102069.06
2023-01-03T15:10:12.540Z,102070.00
2023-01-03T15:12:48.965Z,102066.47
2023-01-03T15:15:30.735Z,102081.25
2023-01-03T15:18:03.772Z,102082.25
2023-01-03T15:20:37.308Z,102084.91
2023-01-03T15:23:06.054Z,102083.69
2023-01-03T15:25:37.705Z,102082.78
2023-01-03T15:28:26.368Z,102084.31
2023-01-03T15:30:56.731Z,102087.13
2023-01-03T15:33:33.539Z,102092.25
2023-01-03T15:36:18.471Z,102086.09
2023-01-03T15:38:48.826Z,102093.84
2023-01-03T15:44:49.673Z,102105.09
2023-01-03T15:47:19.827Z,102100.84
2023-01-03T15:49:50.335Z,102096.19
2023-01-03T15:52:17.843Z,102106.72
2023-01-03T15:54:46.146Z,102096.34
2023-01-03T15:57:20.504Z,102104.34
2023-01-03T15:59:58.111Z,102100.78
2023-01-03T16:02:26.192Z,102101.66
2023-01-03T16:04:54.434Z,102102.44
2023-01-03T16:07:24.571Z,102106.72
2023-01-03T18:41:53.144Z,102186.16
2023-01-03T21:20:00.532Z,102218.09
2023-01-03T22:54:55.665Z,102278.28
2023-01-03T23:14:09.314Z,102268.31
2023-01-03T23:16:40.297Z,102279.75
